createdAt,value
2023-03-07T00:01:30.223Z,1.30
2023-03-07T00:03:57.895Z,1.40
2023-03-07T00:06:25.743Z,1.50
2023-03-07T00:08:53.880Z,1.43
2023-03-07T00:11:21.102Z,1.50
2023-03-07T00:13:48.780Z,1.50
2023-03-07T00:16:17.459Z,1.57
2023-03-07T00:18:44.684Z,1.50
2023-03-07T00:21:13.368Z,1.40
2023-03-07T00:23:41.455Z,1.47
2023-03-07T00:26:11.656Z,1.30
2023-03-07T00:28:38.865Z,1.60
2023-03-07T00:31:07.699Z,1.27
2023-03-07T00:33:35.246Z,1.40
2023-03-07T00:36:04.338Z,1.50
2023-03-07T00:38:31.951Z,1.53
2023-03-07T00:41:00.244Z,1.50
2023-03-07T00:43:27.745Z,1.30
2023-03-07T00:45:55.044Z,1.50
2023-03-07T00:48:23.442Z,1.37
2023-03-07T00:50:51.104Z,1.63
2023-03-07T00:53:18.746Z,1.40
2023-03-07T00:56:02.574Z,1.23
2023-03-07T00:58:31.117Z,1.30
2023-03-07T01:00:58.327Z,1.33
2023-03-07T01:03:25.544Z,1.30
2023-03-07T01:05:53.209Z,1.50
2023-03-07T01:08:20.735Z,1.40
2023-03-07T01:10:48.798Z,1.40
2023-03-07T01:13:16.938Z,1.63
2023-03-07T01:15:44.114Z,1.40
2023-03-07T01:18:11.288Z,1.43
2023-03-07T01:20:39.174Z,1.50
2023-03-07T01:23:06.635Z,1.90
2023-03-07T01:25:38.373Z,1.50
2023-03-07T01:28:05.669Z,1.40
2023-03-07T01:30:32.838Z,1.60
2023-03-07T01:33:00.357Z,1.50
2023-03-07T01:35:28.113Z,1.40
2023-03-07T01:37:55.498Z,1.40
2023-03-07T01:40:23.430Z,1.37
2023-03-07T01:42:53.007Z,1.50
2023-03-07T01:45:35.484Z,1.30
2023-03-07T01:48:02.751Z,1.20
2023-03-07T01:50:29.929Z,1.40
2023-03-07T01:53:01.115Z,1.20
2023-03-07T01:55:30.647Z,1.40
2023-03-07T01:58:00.768Z,1.27
2023-03-07T02:00:30.745Z,1.30
2023-03-07T02:03:07.453Z,1.30
2023-03-07T02:05:43.365Z,1.20
2023-03-07T02:08:12.221Z,1.30
2023-03-07T02:10:40.424Z,1.47
2023-03-07T02:13:08.100Z,1.30
2023-03-07T02:15:35.600Z,1.37
2023-03-07T02:18:03.623Z,1.30
2023-03-07T02:20:49.526Z,1.47
2023-03-07T02:23:28.226Z,1.33
2023-03-07T02:26:00.534Z,2.00
2023-03-07T02:28:27.869Z,1.40
2023-03-07T02:30:59.813Z,1.20
2023-03-07T02:33:27.277Z,1.40
2023-03-07T02:35:56.060Z,1.50
2023-03-07T02:38:23.843Z,1.30
2023-03-07T02:40:52.721Z,1.50
2023-03-07T02:43:20.584Z,1.13
2023-03-07T02:45:47.741Z,1.23
2023-03-07T02:48:15.198Z,1.40
2023-03-07T02:50:42.324Z,1.60
2023-03-07T02:53:09.435Z,1.30
2023-03-07T02:55:36.785Z,1.40
2023-03-07T02:58:03.964Z,1.50
2023-03-07T03:00:31.226Z,1.60
2023-03-07T03:02:58.425Z,1.50
2023-03-07T03:05:25.753Z,1.47
2023-03-07T03:07:52.938Z,1.67
2023-03-07T03:10:20.280Z,1.40
2023-03-07T03:12:47.447Z,1.40
2023-03-07T03:15:14.664Z,1.57
2023-03-07T03:17:41.874Z,1.37
2023-03-07T03:20:11.835Z,1.53
2023-03-07T03:22:41.719Z,1.40
2023-03-07T03:25:10.127Z,1.40
2023-03-07T03:27:38.176Z,1.60
2023-03-07T03:30:06.235Z,1.27
2023-03-07T03:32:33.740Z,1.80
2023-03-07T03:35:01.084Z,1.53
2023-03-07T03:37:28.267Z,1.40
2023-03-07T03:39:55.473Z,1.73
2023-03-07T03:42:22.918Z,1.70
2023-03-07T03:44:50.055Z,1.77
2023-03-07T03:47:17.435Z,1.50
2023-03-07T03:49:44.605Z,1.50
2023-03-07T03:52:11.833Z,1.47
2023-03-07T03:54:39.025Z,1.50
2023-03-07T03:57:06.231Z,1.60
2023-03-07T03:59:33.364Z,1.70
2023-03-07T04:02:00.715Z,1.10
2023-03-07T04:04:27.888Z,1.57
2023-03-07T04:06:55.032Z,1.50
2023-03-07T04:09:22.159Z,1.50
2023-03-07T04:11:49.355Z,1.73
2023-03-07T04:14:16.487Z,1.50
2023-03-07T04:16:43.736Z,1.57
2023-03-07T04:19:12.942Z,1.60
2023-03-07T04:21:40.833Z,1.60
2023-03-07T04:24:08.744Z,1.40
2023-03-07T04:26:36.750Z,1.40
2023-03-07T04:29:04.417Z,1.50
2023-03-07T04:31:32.191Z,1.23
2023-03-07T04:33:59.454Z,1.27
2023-03-07T04:36:26.792Z,1.33
2023-03-07T04:38:53.989Z,1.60
2023-03-07T04:41:26.041Z,1.30
2023-03-07T04:43:53.277Z,1.60
2023-03-07T04:46:20.673Z,1.63
2023-03-07T04:48:48.055Z,1.43
2023-03-07T04:51:15.348Z,1.60
2023-03-07T04:53:42.548Z,1.50
2023-03-07T04:56:10.094Z,1.40
2023-03-07T04:58:37.749Z,1.67
2023-03-07T05:01:05.512Z,1.40
2023-03-07T05:03:32.894Z,1.40
2023-03-07T05:06:03.854Z,1.40
2023-03-07T05:08:31.244Z,1.50
2023-03-07T05:10:58.432Z,1.40
2023-03-07T05:13:25.596Z,1.47
2023-03-07T05:15:53.608Z,1.40
2023-03-07T05:18:20.954Z,1.40
2023-03-07T05:20:48.130Z,1.33
2023-03-07T05:23:15.312Z,1.40
2023-03-07T05:25:43.592Z,1.40
2023-03-07T05:28:11.081Z,1.40
2023-03-07T05:30:38.303Z,1.43
2023-03-07T05:33:05.486Z,1.90
2023-03-07T05:35:32.709Z,1.10
2023-03-07T05:37:59.879Z,1.50
2023-03-07T05:40:27.012Z,1.40
2023-03-07T05:42:54.163Z,1.23
2023-03-07T05:45:21.358Z,1.10
2023-03-07T05:47:48.545Z,1.03
2023-03-07T05:50:15.741Z,1.60
2023-03-07T05:52:42.914Z,1.40
2023-03-07T05:55:10.270Z,1.53
2023-03-07T05:57:37.458Z,1.50
2023-03-07T06:00:06.310Z,1.47
2023-03-07T06:02:33.564Z,1.50
2023-03-07T06:05:00.708Z,1.40
2023-03-07T06:07:27.902Z,1.60
2023-03-07T06:09:55.026Z,1.70
2023-03-07T06:12:22.217Z,1.60
2023-03-07T06:14:49.346Z,1.90
2023-03-07T06:17:16.463Z,1.80
2023-03-07T06:19:43.588Z,1.77
2023-03-07T06:22:10.761Z,1.87
2023-03-07T06:24:38.017Z,1.90
2023-03-07T06:27:05.233Z,1.60
2023-03-07T06:29:32.363Z,2.00
2023-03-07T06:32:00.198Z,2.43
2023-03-07T06:34:27.514Z,1.90
2023-03-07T06:36:54.668Z,2.07
2023-03-07T06:39:22.029Z,1.60
2023-03-07T06:41:49.788Z,2.00
2023-03-07T06:44:17.788Z,2.13
2023-03-07T06:46:45.594Z,1.60
2023-03-07T06:49:12.719Z,2.00
2023-03-07T06:51:39.892Z,1.90
2023-03-07T06:54:07.383Z,1.90
2023-03-07T06:56:35.794Z,1.97
2023-03-07T06:59:04.089Z,1.83
2023-03-07T07:01:31.492Z,1.77
2023-03-07T07:03:58.664Z,1.80
2023-03-07T07:06:25.834Z,2.10
2023-03-07T07:08:56.882Z,1.80
2023-03-07T07:11:24.716Z,2.13
2023-03-07T07:13:51.997Z,2.10
2023-03-07T07:16:19.632Z,1.80
2023-03-07T07:18:47.117Z,1.80
2023-03-07T07:21:14.296Z,1.90
2023-03-07T07:23:41.531Z,1.80
2023-03-07T07:26:08.763Z,2.00
2023-03-07T07:28:36.090Z,1.70
2023-03-07T07:31:04.096Z,2.00
2023-03-07T07:33:31.807Z,1.90
2023-03-07T07:35:59.061Z,1.77
2023-03-07T07:38:26.270Z,2.27
2023-03-07T07:40:53.404Z,1.97
2023-03-07T07:43:20.647Z,1.80
2023-03-07T07:45:47.840Z,2.10
2023-03-07T07:48:15.011Z,1.70
2023-03-07T07:50:42.152Z,1.77
2023-03-07T07:53:09.341Z,1.70
2023-03-07T07:55:36.481Z,1.60
2023-03-07T07:58:03.592Z,1.90
2023-03-07T08:00:30.732Z,1.67
2023-03-07T08:02:59.265Z,1.90
2023-03-07T08:05:26.418Z,1.93
2023-03-07T08:07:53.627Z,1.80
2023-03-07T08:10:21.743Z,1.60
2023-03-07T08:12:52.747Z,1.70
2023-03-07T08:15:21.508Z,1.77
2023-03-07T08:17:50.369Z,1.67
2023-03-07T08:20:17.915Z,1.90
2023-03-07T08:22:45.125Z,1.87
2023-03-07T08:25:17.785Z,1.90
2023-03-07T08:27:44.982Z,1.80
2023-03-07T08:30:12.677Z,1.80
2023-03-07T08:32:40.058Z,1.97
2023-03-07T08:35:07.540Z,1.97
2023-03-07T08:37:35.358Z,1.80
2023-03-07T08:40:02.698Z,2.67
2023-03-07T08:42:30.137Z,1.70
2023-03-07T08:44:57.365Z,2.07
2023-03-07T08:47:24.524Z,2.10
2023-03-07T08:49:51.793Z,2.00
2023-03-07T08:52:18.969Z,1.67
2023-03-07T08:54:46.224Z,2.00
2023-03-07T08:57:13.392Z,1.83
2023-03-07T08:59:40.515Z,1.80
2023-03-07T09:02:07.751Z,1.63
2023-03-07T09:04:35.013Z,1.90
2023-03-07T09:07:02.179Z,1.83
2023-03-07T09:09:30.060Z,1.83
2023-03-07T09:11:57.443Z,1.53
2023-03-07T09:14:24.702Z,2.13
2023-03-07T09:16:51.850Z,1.63
2023-03-07T09:19:19.085Z,1.60
2023-03-07T09:21:46.267Z,1.50
2023-03-07T09:24:13.455Z,1.77
2023-03-07T09:26:40.610Z,1.70
2023-03-07T09:29:07.753Z,1.50
2023-03-07T09:31:34.910Z,1.50
2023-03-07T09:34:02.063Z,1.80
2023-03-07T09:36:29.209Z,1.87
2023-03-07T09:38:58.172Z,1.60
2023-03-07T09:41:31.688Z,1.57
2023-03-07T09:44:05.457Z,1.50
2023-03-07T09:46:51.416Z,1.87
2023-03-07T09:49:20.127Z,1.50
2023-03-07T09:51:49.792Z,2.07
2023-03-07T09:54:18.600Z,1.87
2023-03-07T09:56:59.108Z,2.40
2023-03-07T09:59:45.485Z,1.57
2023-03-07T10:02:31.072Z,1.53
2023-03-07T10:05:07.504Z,1.70
2023-03-07T10:07:35.635Z,1.50
2023-03-07T10:10:05.904Z,1.73
2023-03-07T10:12:35.834Z,1.67
2023-03-07T10:15:09.170Z,1.80
2023-03-07T10:17:39.042Z,1.70
2023-03-07T10:20:13.011Z,1.90
2023-03-07T10:22:44.348Z,1.90
2023-03-07T10:25:23.838Z,2.00
2023-03-07T10:27:53.402Z,1.90
2023-03-07T10:30:22.040Z,1.73
2023-03-07T10:32:52.587Z,1.93
2023-03-07T10:35:21.114Z,1.80
2023-03-07T10:37:50.442Z,2.00
2023-03-07T10:40:20.374Z,2.07
2023-03-07T10:42:47.594Z,2.10
2023-03-07T10:45:15.139Z,2.00
2023-03-07T10:47:42.757Z,1.80
2023-03-07T10:50:21.808Z,1.90
2023-03-07T10:52:58.895Z,1.60
2023-03-07T10:55:42.275Z,2.07
2023-03-07T10:58:25.938Z,2.30
2023-03-07T11:01:04.084Z,1.90
2023-03-07T11:03:52.194Z,2.00
2023-03-07T11:06:33.861Z,1.93
2023-03-07T11:09:19.901Z,2.20
2023-03-07T11:11:55.130Z,2.00
2023-03-07T11:14:22.497Z,1.80
2023-03-07T11:16:52.637Z,1.97
2023-03-07T11:19:33.793Z,2.23
2023-03-07T11:22:03.469Z,2.00
2023-03-07T11:24:34.670Z,1.70
2023-03-07T11:27:01.829Z,1.97
2023-03-07T11:29:28.965Z,1.70
2023-03-07T11:32:05.550Z,1.90
2023-03-07T11:34:39.209Z,2.00
2023-03-07T11:37:27.057Z,1.90
2023-03-07T11:40:13.020Z,2.10
2023-03-07T11:42:44.739Z,1.73
2023-03-07T11:45:14.916Z,1.90
2023-03-07T11:47:52.775Z,1.83
2023-03-07T11:50:24.010Z,1.80
2023-03-07T11:52:54.464Z,1.80
2023-03-07T11:55:21.915Z,2.17
2023-03-07T11:57:49.094Z,2.00
2023-03-07T12:00:19.424Z,1.70
2023-03-07T12:02:54.424Z,1.60
2023-03-07T12:05:24.680Z,1.83
2023-03-07T12:08:04.407Z,1.80
2023-03-07T12:10:34.694Z,1.80
2023-03-07T12:13:14.080Z,1.93
2023-03-07T12:15:44.203Z,1.63
2023-03-07T12:18:11.337Z,1.73
2023-03-07T12:20:38.493Z,2.10
2023-03-07T12:23:08.882Z,1.90
2023-03-07T12:25:40.807Z,1.27
2023-03-07T12:28:12.764Z,1.60
2023-03-07T12:30:58.273Z,1.77
2023-03-07T12:33:36.820Z,1.80
2023-03-07T12:36:06.170Z,1.70
2023-03-07T12:38:51.544Z,1.80
2023-03-07T12:41:27.786Z,1.87
2023-03-07T12:43:57.746Z,1.73
2023-03-07T12:46:24.892Z,1.60
2023-03-07T12:48:54.860Z,1.67
2023-03-07T12:51:26.848Z,1.73
2023-03-07T12:53:55.063Z,1.70
2023-03-07T12:56:33.829Z,1.77
2023-03-07T12:59:12.752Z,1.47
2023-03-07T13:01:44.040Z,1.73
2023-03-07T13:04:33.218Z,1.30
2023-03-07T13:07:20.641Z,1.60
2023-03-07T13:09:49.559Z,1.57
2023-03-07T13:12:16.711Z,1.60
2023-03-07T13:14:45.150Z,1.50
2023-03-07T13:17:14.179Z,1.77
2023-03-07T13:19:42.788Z,1.57
2023-03-07T13:22:15.800Z,1.20
2023-03-07T13:24:46.346Z,1.50
2023-03-07T13:27:20.889Z,1.40
2023-03-07T13:30:03.295Z,1.60
2023-03-07T13:32:52.152Z,1.40
2023-03-07T13:35:46.304Z,1.30
2023-03-07T13:38:25.510Z,1.50
2023-03-07T13:40:54.560Z,1.33
2023-03-07T13:43:27.584Z,1.60
2023-03-07T13:45:55.184Z,1.40
2023-03-07T13:48:31.292Z,1.47
2023-03-07T13:51:01.544Z,1.23
2023-03-07T13:53:31.841Z,1.40
2023-03-07T13:56:04.715Z,1.33
2023-03-07T13:58:56.469Z,1.10
2023-03-07T14:01:25.590Z,1.30
2023-03-07T14:03:56.876Z,1.50
2023-03-07T14:06:28.952Z,1.40
2023-03-07T14:08:56.197Z,1.40
2023-03-07T14:11:30.499Z,1.37
2023-03-07T14:14:21.086Z,1.27
2023-03-07T14:16:51.016Z,1.50
2023-03-07T14:19:50.683Z,1.40
2023-03-07T14:22:42.060Z,1.30
2023-03-07T14:25:09.193Z,1.50
2023-03-07T14:27:50.813Z,1.53
2023-03-07T14:30:18.370Z,1.30
2023-03-07T14:32:45.525Z,1.33
2023-03-07T14:35:15.388Z,1.27
2023-03-07T14:37:44.088Z,1.60
2023-03-07T14:40:11.440Z,1.50
2023-03-07T14:42:57.396Z,1.43
2023-03-07T14:45:30.862Z,1.37
2023-03-07T14:48:10.004Z,1.30
2023-03-07T14:50:43.857Z,1.10
2023-03-07T14:53:22.199Z,1.37
2023-03-07T14:55:50.805Z,1.40
2023-03-07T14:58:25.174Z,1.57
2023-03-07T15:01:03.610Z,1.30
2023-03-07T15:03:31.666Z,1.40
2023-03-07T15:06:00.007Z,1.30
2023-03-07T15:08:27.215Z,1.73
2023-03-07T15:11:01.546Z,1.30
2023-03-07T15:13:47.054Z,0.90
2023-03-07T15:16:18.519Z,1.30
2023-03-07T15:18:49.309Z,1.50
2023-03-07T15:21:23.921Z,1.27
2023-03-07T15:23:53.817Z,1.00
2023-03-07T15:26:23.138Z,1.30
2023-03-07T15:28:50.745Z,1.40
2023-03-07T15:31:22.933Z,1.40
2023-03-07T15:33:50.114Z,1.30
2023-03-07T15:36:19.098Z,1.20
2023-03-07T15:38:48.021Z,1.37
2023-03-07T15:41:44.252Z,1.30
2023-03-07T15:44:11.350Z,1.30
2023-03-07T15:46:43.617Z,1.30
2023-03-07T15:49:28.804Z,1.20
2023-03-07T15:51:57.721Z,1.67
2023-03-07T15:54:38.520Z,1.50
2023-03-07T15:57:07.737Z,1.50
2023-03-07T15:59:34.826Z,1.30
2023-03-07T16:02:20.827Z,1.33
2023-03-07T16:04:49.013Z,1.50
2023-03-07T16:07:17.356Z,1.50
2023-03-07T16:09:44.848Z,1.33
2023-03-07T16:12:13.260Z,1.30
2023-03-07T16:14:40.665Z,1.40
2023-03-07T16:17:26.656Z,1.40
2023-03-07T16:19:54.046Z,1.20
2023-03-07T16:22:22.640Z,0.93
2023-03-07T16:24:49.927Z,1.47
2023-03-07T16:27:18.988Z,1.30
2023-03-07T16:29:46.827Z,1.33
2023-03-07T16:32:15.418Z,1.20
2023-03-07T16:34:44.375Z,1.40
2023-03-07T16:37:11.670Z,1.10
2023-03-07T16:39:38.905Z,1.17
2023-03-07T16:42:07.666Z,1.30
2023-03-07T16:44:39.044Z,1.20
2023-03-07T16:47:06.303Z,0.90
2023-03-07T16:49:33.442Z,1.47
2023-03-07T16:52:06.116Z,1.03
2023-03-07T16:54:33.684Z,1.10
2023-03-07T16:57:02.065Z,0.80
2023-03-07T16:59:34.729Z,0.90
2023-03-07T17:02:02.332Z,1.07
2023-03-07T17:04:29.528Z,1.13
2023-03-07T17:07:04.366Z,1.17
2023-03-07T17:09:32.088Z,1.13
2023-03-07T17:11:59.330Z,0.93
2023-03-07T17:14:26.583Z,1.60
2023-03-07T17:16:53.800Z,1.00
2023-03-07T17:19:28.113Z,1.10
2023-03-07T17:21:55.862Z,1.10
2023-03-07T17:24:23.009Z,0.87
2023-03-07T17:26:50.404Z,0.90
2023-03-07T17:29:20.549Z,1.20
2023-03-07T17:31:47.757Z,1.17
2023-03-07T17:34:25.129Z,0.90
2023-03-07T17:36:52.376Z,1.20
2023-03-07T17:39:20.496Z,1.30
2023-03-07T17:41:47.700Z,1.20
2023-03-07T17:44:17.570Z,1.07
2023-03-07T17:46:45.091Z,1.30
2023-03-07T17:49:12.268Z,1.13
2023-03-07T17:51:39.479Z,1.10
2023-03-07T17:54:08.233Z,1.40
2023-03-07T17:56:36.621Z,3.63
2023-03-07T17:59:04.460Z,1.00
2023-03-07T18:01:32.380Z,1.10
2023-03-07T18:03:59.591Z,1.20
2023-03-07T18:06:26.948Z,1.00
2023-03-07T18:08:54.072Z,1.10
2023-03-07T18:11:21.681Z,0.97
2023-03-07T18:13:48.861Z,1.10
2023-03-07T18:16:16.079Z,0.83
2023-03-07T18:18:57.756Z,1.30
2023-03-07T18:21:26.084Z,1.20
2023-03-07T18:23:53.704Z,1.48
2023-03-07T18:26:21.329Z,1.30
2023-03-07T18:28:49.519Z,1.10
2023-03-07T18:31:16.677Z,1.20
2023-03-07T18:33:44.101Z,1.03
2023-03-07T18:36:15.512Z,1.33
2023-03-07T18:38:43.115Z,1.40
2023-03-07T18:41:11.896Z,0.90
2023-03-07T18:43:39.528Z,1.20
2023-03-07T18:46:13.916Z,1.30
2023-03-07T18:48:41.172Z,1.30
2023-03-07T18:51:09.838Z,1.20
2023-03-07T18:53:37.444Z,1.13
2023-03-07T18:56:08.591Z,1.30
2023-03-07T18:58:36.254Z,0.90
2023-03-07T19:01:18.635Z,1.37
2023-03-07T19:03:47.333Z,1.23
2023-03-07T19:06:15.241Z,1.13
2023-03-07T19:08:42.492Z,1.40
2023-03-07T19:11:11.614Z,1.00
2023-03-07T19:13:39.251Z,1.20
2023-03-07T19:16:08.206Z,1.17
2023-03-07T19:18:35.936Z,1.30
2023-03-07T19:21:07.261Z,1.20
2023-03-07T19:23:34.370Z,1.30
2023-03-07T19:26:02.825Z,1.10
2023-03-07T19:28:30.243Z,1.30
2023-03-07T19:30:57.637Z,1.10
2023-03-07T19:33:27.946Z,1.20
2023-03-07T19:36:02.578Z,1.20
2023-03-07T19:38:29.900Z,1.10
2023-03-07T19:40:58.964Z,1.20
2023-03-07T19:43:30.217Z,0.90
2023-03-07T19:45:57.459Z,1.17
2023-03-07T19:48:25.404Z,4.63
2023-03-07T19:50:53.343Z,1.20
2023-03-07T19:53:20.681Z,1.10
2023-03-07T19:55:47.893Z,1.20
2023-03-07T19:58:15.077Z,1.00
2023-03-07T20:00:43.457Z,1.20
2023-03-07T20:03:14.893Z,1.10
2023-03-07T20:05:45.827Z,1.07
2023-03-07T20:08:13.213Z,1.10
2023-03-07T20:10:40.695Z,1.13
2023-03-07T20:13:08.111Z,1.00
2023-03-07T20:15:35.813Z,1.00
2023-03-07T20:18:05.798Z,0.90
2023-03-07T20:20:35.407Z,1.00
2023-03-07T20:23:02.631Z,0.70
2023-03-07T20:25:30.150Z,0.90
2023-03-07T20:27:57.899Z,0.70
2023-03-07T20:30:25.200Z,0.90
2023-03-07T20:32:52.409Z,0.60
2023-03-07T20:35:20.119Z,1.13
2023-03-07T20:37:47.256Z,0.97
2023-03-07T20:40:14.368Z,0.80
2023-03-07T20:42:41.567Z,0.80
2023-03-07T20:45:08.960Z,1.00
2023-03-07T20:47:38.379Z,1.10
2023-03-07T20:50:06.348Z,0.80
2023-03-07T20:52:33.512Z,0.70
2023-03-07T20:55:00.692Z,0.90
2023-03-07T20:57:27.911Z,0.80
2023-03-07T20:59:55.025Z,0.77
2023-03-07T21:02:22.190Z,1.10
2023-03-07T21:04:49.952Z,0.70
2023-03-07T21:07:17.231Z,0.90
2023-03-07T21:09:50.775Z,0.90
2023-03-07T21:12:18.270Z,0.70
2023-03-07T21:14:45.475Z,0.80
2023-03-07T21:17:13.439Z,0.70
2023-03-07T21:19:40.558Z,0.80
2023-03-07T21:22:07.811Z,0.57
2023-03-07T21:24:34.973Z,0.60
2023-03-07T21:27:02.162Z,0.90
2023-03-07T21:29:29.417Z,0.73
2023-03-07T21:31:56.555Z,0.70
2023-03-07T21:34:23.907Z,0.87
2023-03-07T21:36:55.974Z,0.73
2023-03-07T21:39:26.701Z,0.53
2023-03-07T21:41:53.859Z,0.70
2023-03-07T21:44:21.030Z,0.80
2023-03-07T21:46:48.172Z,0.70
2023-03-07T21:49:16.791Z,0.63
2023-03-07T21:51:43.969Z,0.83
2023-03-07T21:54:11.107Z,0.40
2023-03-07T21:56:39.608Z,0.57
2023-03-07T21:59:07.045Z,0.40
2023-03-07T22:01:34.290Z,0.80
2023-03-07T22:04:01.656Z,0.83
2023-03-07T22:06:29.106Z,0.63
2023-03-07T22:08:56.383Z,0.80
2023-03-07T22:11:23.596Z,0.70
2023-03-07T22:13:50.787Z,0.90
2023-03-07T22:16:20.540Z,0.53
2023-03-07T22:18:55.037Z,0.80
2023-03-07T22:21:24.859Z,0.57
2023-03-07T22:23:52.115Z,0.80
2023-03-07T22:26:19.254Z,0.60
2023-03-07T22:28:46.386Z,0.67
2023-03-07T22:31:13.926Z,0.80
2023-03-07T22:33:41.687Z,0.60
2023-03-07T22:36:09.756Z,0.50
2023-03-07T22:38:36.906Z,0.60
2023-03-07T22:41:05.661Z,0.90
2023-03-07T22:43:33.259Z,0.60
2023-03-07T22:46:00.771Z,0.53
2023-03-07T22:48:28.354Z,0.60
2023-03-07T22:50:55.531Z,0.50
2023-03-07T22:53:22.681Z,0.80
2023-03-07T22:55:49.818Z,0.60
2023-03-07T22:58:17.066Z,0.60
2023-03-07T23:00:45.070Z,0.63
2023-03-07T23:03:12.568Z,0.50
2023-03-07T23:05:39.826Z,0.67
2023-03-07T23:08:07.001Z,0.70
2023-03-07T23:10:34.342Z,0.87
2023-03-07T23:13:01.498Z,0.80
2023-03-07T23:15:28.686Z,0.80
2023-03-07T23:17:55.935Z,1.10
2023-03-07T23:20:26.131Z,0.80
2023-03-07T23:22:53.858Z,0.93
2023-03-07T23:25:21.056Z,0.70
2023-03-07T23:27:48.297Z,1.10
2023-03-07T23:30:17.476Z,1.10
2023-03-07T23:32:44.680Z,0.97
2023-03-07T23:35:12.221Z,1.20
2023-03-07T23:37:41.740Z,0.80
2023-03-07T23:40:11.050Z,1.00
2023-03-07T23:42:38.437Z,0.80
2023-03-07T23:45:05.780Z,1.00
2023-03-07T23:47:34.208Z,0.97
2023-03-07T23:50:01.436Z,1.00
2023-03-07T23:52:28.565Z,0.80
2023-03-07T23:54:55.716Z,1.20
2023-03-07T23:57:23.618Z,1.03
2023-03-07T23:59:50.772Z,1.17
